Time;durP1;ratioP1;P1;durP2;ratioP2;P2;SDS_P1;SDS_P2;PMS_P1;PMS_P2;Temp;Humidity;BMP_temperature;BMP_pressure;BME280_temperature;BME280_humidity;BME280_pressure;Samples;Min_cycle;Max_cycle;Signal;HPM_P1;HPM_P2
2021/12/28 00:01:16;;;;;;;1.40;1.30;;;18.80;35.10;;;;;;5069060;28;20471;-65
2021/12/28 00:03:44;;;;;;;1.40;1.30;;;18.80;35.10;;;;;;5068671;28;20885;-65
2021/12/28 00:06:12;;;;;;;1.70;1.60;;;18.80;35.10;;;;;;5069083;28;20446;-65
2021/12/28 00:08:39;;;;;;;1.50;1.40;;;18.80;35.10;;;;;;5068888;28;20476;-65
2021/12/28 00:11:06;;;;;;;1.47;1.37;;;18.80;35.10;;;;;;5068987;28;20434;-65
2021/12/28 00:13:33;;;;;;;1.43;1.33;;;18.80;35.10;;;;;;5071970;28;20454;-65
2021/12/28 00:16:24;;;;;;;1.60;1.50;;;18.80;35.10;;;;;;5072637;28;20508;-65
2021/12/28 00:18:47;;;;;;;1.30;1.20;;;18.80;35.10;;;;;;5072166;28;20453;-65
2021/12/28 00:21:13;;;;;;;1.77;1.67;;;18.80;35.10;;;;;;5072888;28;20475;-64
2021/12/28 00:23:40;;;;;;;1.40;1.30;;;18.80;35.10;;;;;;5072501;28;20249;-64
2021/12/28 00:26:11;;;;;;;1.20;1.10;;;18.80;35.10;;;;;;5071559;28;20571;-64
2021/12/28 00:28:36;;;;;;;1.40;1.30;;;18.80;35.10;;;;;;5072494;28;20955;-64
2021/12/28 00:31:02;;;;;;;1.30;1.20;;;18.80;35.10;;;;;;5072375;28;20455;-65
2021/12/28 00:33:28;;;;;;;1.40;1.30;;;18.80;35.10;;;;;;5072431;28;20213;-65
2021/12/28 00:35:54;;;;;;;1.40;1.30;;;18.80;35.10;;;;;;5072297;28;20222;-65
2021/12/28 00:38:22;;;;;;;1.20;1.10;;;18.80;35.10;;;;;;5072857;28;20719;-65
2021/12/28 00:40:59;;;;;;;1.33;1.23;;;18.80;35.10;;;;;;5072643;28;20365;-65
2021/12/28 00:43:27;;;;;;;1.47;1.37;;;18.80;35.10;;;;;;5072158;28;20522;-65
2021/12/28 00:45:53;;;;;;;1.53;1.43;;;18.80;35.10;;;;;;5071518;28;20429;-65
2021/12/28 00:48:19;;;;;;;1.30;1.20;;;18.80;35.10;;;;;;5052479;28;20439;-65
2021/12/28 00:50:45;;;;;;;1.47;1.37;;;18.80;35.10;;;;;;5071919;28;20222;-65
2021/12/28 00:53:11;;;;;;;1.30;1.20;;;18.80;35.10;;;;;;5071947;28;20351;-65
2021/12/28 00:55:37;;;;;;;1.40;1.30;;;18.80;35.10;;;;;;5072092;28;20429;-64
2021/12/28 00:58:04;;;;;;;1.50;1.40;;;18.80;35.10;;;;;;5072019;28;20980;-65
2021/12/28 01:00:32;;;;;;;1.30;1.20;;;18.80;35.10;;;;;;5070844;28;20717;-65
2021/12/28 01:03:00;;;;;;;1.30;1.20;;;18.80;35.10;;;;;;5071600;28;20481;-64
2021/12/28 01:05:27;;;;;;;1.33;1.23;;;18.80;35.10;;;;;;5071700;28;20450;-65
2021/12/28 01:07:53;;;;;;;1.50;1.40;;;18.80;35.10;;;;;;5071834;28;20443;-64
2021/12/28 01:10:22;;;;;;;1.30;1.20;;;18.80;35.10;;;;;;5072332;28;20447;-64
2021/12/28 01:12:52;;;;;;;1.40;1.30;;;18.80;35.10;;;;;;5071684;28;20474;-65
2021/12/28 01:15:20;;;;;;;1.50;1.40;;;18.80;35.10;;;;;;5069920;28;20468;-65
2021/12/28 01:17:46;;;;;;;1.70;1.60;;;18.80;35.10;;;;;;5071563;28;20437;-65
2021/12/28 01:20:13;;;;;;;1.40;1.30;;;18.80;35.10;;;;;;5053767;28;20919;-65
2021/12/28 01:22:40;;;;;;;1.50;1.40;;;18.80;35.10;;;;;;5070986;28;20433;-65
2021/12/28 01:25:07;;;;;;;1.27;1.17;;;18.80;35.10;;;;;;5070775;28;20493;-65
2021/12/28 01:27:33;;;;;;;1.47;1.37;;;18.80;35.10;;;;;;5071233;28;20492;-65
2021/12/28 01:29:59;;;;;;;1.23;1.13;;;18.80;35.10;;;;;;5071262;28;20443;-65
2021/12/28 01:32:24;;;;;;;1.30;1.20;;;18.80;35.10;;;;;;5071298;28;20232;-65
2021/12/28 01:34:50;;;;;;;1.30;1.20;;;18.80;35.10;;;;;;5071971;28;20217;-65
2021/12/28 01:37:15;;;;;;;1.50;1.40;;;18.80;35.10;;;;;;5071485;28;20879;-65
2021/12/28 01:39:41;;;;;;;1.40;1.30;;;18.80;35.10;;;;;;5070950;28;20300;-65
2021/12/28 01:42:07;;;;;;;1.20;1.10;;;18.80;35.10;;;;;;5071202;28;20264;-65
2021/12/28 01:44:35;;;;;;;1.30;1.20;;;18.80;35.00;;;;;;5070972;28;20218;-65
2021/12/28 01:47:01;;;;;;;1.50;1.40;;;18.80;35.10;;;;;;5070299;28;20433;-65
2021/12/28 01:49:26;;;;;;;1.40;1.30;;;18.80;35.10;;;;;;5070925;28;20750;-65
2021/12/28 01:51:53;;;;;;;1.13;1.03;;;18.80;35.10;;;;;;5070800;28;20451;-65
2021/12/28 01:54:19;;;;;;;1.40;1.30;;;18.80;35.10;;;;;;5071267;28;20218;-65
2021/12/28 01:56:47;;;;;;;1.30;1.20;;;18.80;35.10;;;;;;5070833;28;20428;-64
2021/12/28 01:59:15;;;;;;;1.60;1.50;;;18.80;35.10;;;;;;5070945;28;20422;-65
2021/12/28 02:01:41;;;;;;;1.20;1.10;;;18.80;35.10;;;;;;5068793;28;20818;-65
2021/12/28 02:04:24;;;;;;;1.07;1.07;;;18.80;35.10;;;;;;5070653;28;20481;-65
2021/12/28 02:06:51;;;;;;;1.20;1.10;;;18.80;35.10;;;;;;5070670;28;20654;-65
2021/12/28 02:09:17;;;;;;;1.30;1.20;;;18.80;35.10;;;;;;5070802;28;20424;-65
2021/12/28 02:11:43;;;;;;;1.50;1.40;;;18.80;35.10;;;;;;5070492;28;20958;-65
2021/12/28 02:14:10;;;;;;;1.20;1.10;;;18.80;35.20;;;;;;5070350;28;20438;-65
2021/12/28 02:16:38;;;;;;;1.07;0.97;;;18.80;35.10;;;;;;5070209;28;20237;-65
2021/12/28 02:19:05;;;;;;;1.30;1.20;;;18.80;35.10;;;;;;5070525;28;20961;-65
2021/12/28 02:21:31;;;;;;;1.33;1.23;;;18.80;35.10;;;;;;5070382;28;20414;-65
2021/12/28 02:23:59;;;;;;;1.30;1.20;;;18.80;35.10;;;;;;5068516;28;20800;-64
2021/12/28 02:26:25;;;;;;;1.03;0.93;;;18.80;35.10;;;;;;5070003;28;20429;-64
2021/12/28 02:28:51;;;;;;;1.00;1.00;;;18.80;35.10;;;;;;5070591;28;20446;-64
2021/12/28 02:31:17;;;;;;;1.30;1.20;;;18.80;35.10;;;;;;5070511;28;20419;-65
2021/12/28 02:33:43;;;;;;;1.30;1.20;;;18.80;35.20;;;;;;5069802;28;20693;-65
2021/12/28 02:36:09;;;;;;;1.20;1.10;;;18.80;35.10;;;;;;5069984;28;20511;-65
2021/12/28 02:38:35;;;;;;;1.20;1.10;;;18.80;35.10;;;;;;5068266;28;20947;-65
2021/12/28 02:41:02;;;;;;;1.30;1.20;;;18.80;35.10;;;;;;5070149;28;20210;-65
2021/12/28 02:43:27;;;;;;;1.23;1.13;;;18.80;35.20;;;;;;5069853;28;20859;-65
2021/12/28 02:46:02;;;;;;;1.27;1.17;;;18.80;35.10;;;;;;5069859;28;20935;-65
2021/12/28 02:48:27;;;;;;;1.57;1.20;;;18.80;35.20;;;;;;5069305;28;20244;-65
2021/12/28 02:50:59;;;;;;;0.97;0.97;;;18.80;35.10;;;;;;5069277;28;20437;-65
2021/12/28 02:53:25;;;;;;;1.40;1.30;;;18.80;35.10;;;;;;5051811;28;20665;-65
2021/12/28 02:55:52;;;;;;;0.97;0.97;;;18.80;35.20;;;;;;5070514;28;20444;-65
2021/12/28 02:58:29;;;;;;;1.20;1.10;;;18.80;35.20;;;;;;5070008;28;20878;-65
2021/12/28 03:01:12;;;;;;;1.37;1.27;;;18.80;35.20;;;;;;5069166;28;20420;-65
2021/12/28 03:03:38;;;;;;;1.10;1.07;;;18.80;35.20;;;;;;5069000;28;20482;-65
2021/12/28 03:06:07;;;;;;;1.20;1.10;;;18.80;35.20;;;;;;5069485;28;20433;-65
2021/12/28 03:08:34;;;;;;;1.20;1.10;;;18.80;35.20;;;;;;5067002;28;20413;-65
2021/12/28 03:11:01;;;;;;;1.03;0.93;;;18.80;35.20;;;;;;5069649;28;20519;-65
2021/12/28 03:13:47;;;;;;;1.30;1.20;;;18.80;35.20;;;;;;5069506;28;20786;-65
2021/12/28 03:16:14;;;;;;;1.30;1.20;;;18.80;35.20;;;;;;5069443;28;20442;-65
2021/12/28 03:18:40;;;;;;;1.20;1.00;;;18.80;35.20;;;;;;5069529;28;20425;-64
2021/12/28 03:21:08;;;;;;;1.10;1.00;;;18.80;35.20;;;;;;5069470;28;20504;-64
2021/12/28 03:23:34;;;;;;;1.10;1.00;;;18.80;35.50;;;;;;5069079;28;20774;-65
2021/12/28 03:26:00;;;;;;;1.40;1.30;;;18.80;36.00;;;;;;5069455;28;20474;-65
2021/12/28 03:28:32;;;;;;;1.20;1.10;;;18.80;35.20;;;;;;5069287;28;20439;-65
2021/12/28 03:31:00;;;;;;;1.30;0.90;;;18.80;35.20;;;;;;5069376;28;20657;-64
2021/12/28 03:33:28;;;;;;;1.20;1.10;;;18.80;35.20;;;;;;5069160;28;20430;-65
2021/12/28 03:35:55;;;;;;;1.20;1.10;;;18.80;35.20;;;;;;5069482;28;20443;-65
2021/12/28 03:38:22;;;;;;;1.30;1.20;;;18.80;35.20;;;;;;5069615;28;20442;-65
2021/12/28 03:40:48;;;;;;;1.20;1.10;;;18.80;35.20;;;;;;5069271;28;20816;-65
2021/12/28 03:43:14;;;;;;;1.23;1.13;;;18.80;35.20;;;;;;5069275;28;20450;-65
2021/12/28 03:45:40;;;;;;;1.20;1.10;;;18.80;35.20;;;;;;5069096;28;20236;-65
2021/12/28 03:48:06;;;;;;;1.10;1.00;;;18.80;35.20;;;;;;5072060;28;20780;-65
2021/12/28 03:50:34;;;;;;;1.27;1.17;;;18.80;35.20;;;;;;5073091;28;20217;-65
2021/12/28 03:53:00;;;;;;;1.00;1.00;;;18.80;35.20;;;;;;5072989;28;20457;-65
2021/12/28 03:55:27;;;;;;;1.10;1.00;;;18.80;35.20;;;;;;5073156;28;20519;-65
2021/12/28 03:57:55;;;;;;;1.10;1.00;;;18.80;36.00;;;;;;5073446;28;20592;-65
2021/12/28 04:00:22;;;;;;;1.10;1.00;;;18.80;35.30;;;;;;5073636;28;20440;-65
2021/12/28 04:02:48;;;;;;;1.10;1.00;;;18.80;35.20;;;;;;5073048;28;21030;-65
2021/12/28 04:05:16;;;;;;;1.33;1.23;;;18.80;35.20;;;;;;5055025;28;20560;-65
2021/12/28 04:07:42;;;;;;;1.20;1.10;;;18.80;35.20;;;;;;5072946;28;20253;-65
2021/12/28 04:10:10;;;;;;;1.57;1.07;;;18.80;35.30;;;;;;5072931;28;20973;-65
2021/12/28 04:12:36;;;;;;;1.77;1.00;;;18.80;35.30;;;;;;5072934;28;20443;-65
2021/12/28 04:15:03;;;;;;;1.00;0.90;;;18.80;35.20;;;;;;5072836;28;20453;-65
2021/12/28 04:17:31;;;;;;;0.93;0.83;;;18.80;35.30;;;;;;5071937;28;20223;-65
2021/12/28 04:19:57;;;;;;;1.43;1.10;;;18.80;35.20;;;;;;5072648;28;20405;-65
2021/12/28 04:22:23;;;;;;;1.27;1.17;;;18.80;35.30;;;;;;5072491;28;20985;-65
2021/12/28 04:24:48;;;;;;;1.13;0.90;;;18.80;35.30;;;;;;5072875;28;20222;-65
2021/12/28 04:27:14;;;;;;;1.00;1.00;;;18.80;35.20;;;;;;5072388;28;20244;-65
2021/12/28 04:29:40;;;;;;;1.20;1.10;;;18.80;35.30;;;;;;5072306;28;20236;-65
2021/12/28 04:32:06;;;;;;;1.27;1.17;;;18.80;35.20;;;;;;5072180;28;20217;-65
2021/12/28 04:34:32;;;;;;;1.13;1.03;;;18.80;35.20;;;;;;5072355;28;20571;-65
2021/12/28 04:36:58;;;;;;;1.23;1.13;;;18.80;35.30;;;;;;5070270;28;20454;-65
2021/12/28 04:39:23;;;;;;;0.90;0.90;;;18.80;35.30;;;;;;5072537;28;20770;-65
2021/12/28 04:41:49;;;;;;;1.07;0.97;;;18.80;35.30;;;;;;5072938;28;20218;-65
2021/12/28 04:44:22;;;;;;;1.13;1.03;;;18.80;35.30;;;;;;5072499;28;20217;-65
2021/12/28 04:46:47;;;;;;;1.20;1.10;;;18.80;35.30;;;;;;5071922;28;20449;-65
2021/12/28 04:49:15;;;;;;;1.10;1.00;;;18.80;35.30;;;;;;5072142;28;20938;-65
2021/12/28 04:51:41;;;;;;;1.03;0.90;;;18.80;35.30;;;;;;5072037;28;21149;-65
2021/12/28 04:54:11;;;;;;;1.10;1.00;;;18.80;35.30;;;;;;5072017;28;20424;-65
2021/12/28 04:56:38;;;;;;;1.20;1.10;;;18.80;35.30;;;;;;5071973;28;20705;-64
2021/12/28 04:59:03;;;;;;;0.90;0.90;;;18.80;35.30;;;;;;5071907;28;20474;-65
2021/12/28 05:01:29;;;;;;;1.20;0.97;;;18.80;35.30;;;;;;5068266;28;20464;-65
2021/12/28 05:03:54;;;;;;;1.20;1.10;;;18.80;35.30;;;;;;5071859;28;20234;-65
2021/12/28 05:06:20;;;;;;;1.10;1.00;;;18.80;35.30;;;;;;5072053;28;20221;-65
2021/12/28 05:08:46;;;;;;;1.30;1.20;;;18.80;35.30;;;;;;5071719;28;20328;-65
2021/12/28 05:11:11;;;;;;;1.20;1.10;;;18.80;35.30;;;;;;5071417;28;20632;-64
2021/12/28 05:13:37;;;;;;;1.10;1.00;;;18.80;35.30;;;;;;5071684;28;20317;-64
2021/12/28 05:16:03;;;;;;;1.07;0.97;;;18.80;35.30;;;;;;5071732;28;20535;-65
2021/12/28 05:18:28;;;;;;;1.10;1.00;;;18.80;35.30;;;;;;5053426;28;20214;-65
2021/12/28 05:20:54;;;;;;;1.00;0.90;;;18.80;35.30;;;;;;5071495;28;20308;-65
2021/12/28 05:23:19;;;;;;;1.20;1.10;;;18.80;35.30;;;;;;5071923;28;20678;-65
2021/12/28 05:25:45;;;;;;;0.97;0.93;;;18.80;35.30;;;;;;5071626;28;20702;-65
2021/12/28 05:28:11;;;;;;;1.20;1.10;;;18.80;35.30;;;;;;5071546;28;20225;-65
2021/12/28 05:30:36;;;;;;;2.60;1.10;;;18.80;35.30;;;;;;5071375;28;20632;-65
2021/12/28 05:33:04;;;;;;;1.20;1.10;;;18.80;35.30;;;;;;5071527;28;20259;-64
2021/12/28 05:35:30;;;;;;;1.10;1.00;;;18.80;36.10;;;;;;5071219;28;20221;-65
2021/12/28 05:37:56;;;;;;;0.83;0.83;;;18.80;35.30;;;;;;5070983;28;20432;-64
2021/12/28 05:40:21;;;;;;;0.93;0.90;;;18.80;35.30;;;;;;5071309;28;20209;-65
2021/12/28 05:42:47;;;;;;;1.13;1.03;;;18.80;35.40;;;;;;5071737;28;20560;-65
2021/12/28 05:45:13;;;;;;;1.70;1.20;;;18.80;35.30;;;;;;5071064;28;20233;-64
2021/12/28 05:47:39;;;;;;;1.00;0.90;;;18.80;35.30;;;;;;5071166;28;20764;-65
2021/12/28 05:50:07;;;;;;;1.10;1.00;;;18.80;35.30;;;;;;5071015;28;20291;-65
2021/12/28 05:52:34;;;;;;;1.17;1.00;;;18.80;35.30;;;;;;5070755;28;20421;-65
2021/12/28 05:54:59;;;;;;;1.00;0.90;;;18.80;35.30;;;;;;5070641;28;20923;-65
2021/12/28 05:57:25;;;;;;;1.03;0.93;;;18.80;35.30;;;;;;5070771;28;20443;-65
2021/12/28 05:59:52;;;;;;;1.10;1.00;;;18.80;35.30;;;;;;5071415;28;20298;-65
2021/12/28 06:02:17;;;;;;;1.27;1.00;;;18.80;35.30;;;;;;5069394;28;20454;-65
2021/12/28 06:04:43;;;;;;;1.10;1.00;;;18.80;35.40;;;;;;5070404;28;20775;-65
2021/12/28 06:07:09;;;;;;;1.10;1.00;;;18.80;35.40;;;;;;5070581;28;20264;-65
2021/12/28 06:09:34;;;;;;;1.10;1.00;;;18.80;35.40;;;;;;5069899;28;20297;-65
2021/12/28 06:12:00;;;;;;;1.20;0.83;;;18.80;35.30;;;;;;5070343;28;20293;-65
2021/12/28 06:14:26;;;;;;;1.10;1.00;;;18.80;35.30;;;;;;5070473;28;20257;-65
2021/12/28 06:16:51;;;;;;;0.90;0.90;;;18.80;35.30;;;;;;5070535;28;20214;-65
2021/12/28 06:19:17;;;;;;;1.97;1.10;;;18.80;35.40;;;;;;5071226;28;20217;-65
2021/12/28 06:21:42;;;;;;;1.23;1.13;;;18.80;35.30;;;;;;5070426;28;20723;-65
2021/12/28 06:24:08;;;;;;;2.70;1.00;;;18.80;35.40;;;;;;5070182;28;20213;-65
2021/12/28 06:26:35;;;;;;;1.07;0.97;;;18.80;35.40;;;;;;5069998;28;20670;-65
2021/12/28 06:29:03;;;;;;;1.20;1.10;;;18.80;35.40;;;;;;5070324;28;20642;-65
2021/12/28 06:31:29;;;;;;;1.00;0.90;;;18.80;35.40;;;;;;5070077;28;20962;-65
2021/12/28 06:33:56;;;;;;;1.00;0.90;;;18.80;35.40;;;;;;5070258;28;20417;-65
2021/12/28 06:36:22;;;;;;;1.17;1.07;;;18.80;35.30;;;;;;5070140;28;20217;-65
2021/12/28 06:38:48;;;;;;;1.10;1.00;;;18.80;35.40;;;;;;5070652;28;20439;-65
2021/12/28 06:41:14;;;;;;;0.80;0.80;;;18.80;35.30;;;;;;5069870;28;20449;-65
2021/12/28 06:43:40;;;;;;;1.13;1.03;;;18.80;35.40;;;;;;5067359;28;20426;-65
2021/12/28 06:46:05;;;;;;;1.00;0.90;;;18.80;35.40;;;;;;5069529;28;20233;-65
2021/12/28 06:48:31;;;;;;;1.10;1.00;;;18.80;35.40;;;;;;5069945;28;20266;-65
2021/12/28 06:50:57;;;;;;;1.00;0.90;;;18.80;35.40;;;;;;5069741;28;20216;-65
2021/12/28 06:53:22;;;;;;;1.33;0.90;;;18.80;35.40;;;;;;5069875;28;20217;-65
2021/12/28 06:55:48;;;;;;;1.20;1.10;;;18.80;35.40;;;;;;5070381;28;20283;-65
2021/12/28 06:58:13;;;;;;;1.30;1.20;;;18.80;35.40;;;;;;5069706;28;20217;-65
2021/12/28 07:00:41;;;;;;;1.00;0.90;;;18.80;35.40;;;;;;5069503;28;20316;-65
2021/12/28 07:03:07;;;;;;;1.20;1.10;;;18.80;35.40;;;;;;5069381;28;20312;-64
2021/12/28 07:05:33;;;;;;;0.97;0.90;;;18.80;35.40;;;;;;5069438;28;20581;-65
2021/12/28 07:07:59;;;;;;;1.10;1.00;;;18.80;35.40;;;;;;5069804;28;21046;-65
2021/12/28 07:10:25;;;;;;;1.27;1.00;;;18.80;35.40;;;;;;5051591;28;20213;-65
2021/12/28 07:12:51;;;;;;;1.10;1.00;;;18.80;35.40;;;;;;5052245;28;20441;-65
2021/12/28 07:15:18;;;;;;;1.73;1.17;;;18.80;35.40;;;;;;5069745;28;20214;-64
2021/12/28 07:17:44;;;;;;;1.00;0.90;;;18.80;35.40;;;;;;5069439;28;20249;-64
2021/12/28 07:20:10;;;;;;;1.10;1.00;;;18.80;35.40;;;;;;5069432;28;20517;-65
2021/12/28 07:22:36;;;;;;;1.03;0.93;;;18.80;35.40;;;;;;5069269;28;20452;-65
2021/12/28 07:25:03;;;;;;;1.20;1.10;;;18.80;35.40;;;;;;5069160;28;20454;-65
2021/12/28 07:27:29;;;;;;;1.10;1.00;;;18.80;35.40;;;;;;5069461;28;20275;-65
2021/12/28 07:29:54;;;;;;;0.80;0.80;;;18.80;35.40;;;;;;5069548;28;20517;-65
2021/12/28 07:32:20;;;;;;;1.00;0.90;;;18.80;35.40;;;;;;5069888;28;20244;-65
2021/12/28 07:34:46;;;;;;;1.17;1.07;;;18.80;35.40;;;;;;5069062;28;20240;-64
2021/12/28 07:37:11;;;;;;;1.10;0.97;;;18.80;35.40;;;;;;5069388;28;20729;-65
2021/12/28 07:39:37;;;;;;;1.10;1.00;;;18.80;36.10;;;;;;5068912;28;20279;-65
2021/12/28 07:42:03;;;;;;;1.00;0.90;;;18.80;35.40;;;;;;5069260;28;20221;-65
2021/12/28 07:44:29;;;;;;;1.03;0.90;;;18.80;35.40;;;;;;5068914;28;20214;-65
2021/12/28 07:46:54;;;;;;;1.07;0.97;;;18.80;35.40;;;;;;5068813;28;20460;-65
2021/12/28 07:49:20;;;;;;;1.00;0.90;;;18.80;35.40;;;;;;5069656;28;20225;-65
2021/12/28 07:51:46;;;;;;;1.17;1.07;;;18.80;35.40;;;;;;5068982;28;20595;-65
2021/12/28 07:54:11;;;;;;;1.20;1.10;;;18.80;35.40;;;;;;5068777;28;20685;-65
2021/12/28 07:56:37;;;;;;;1.43;0.87;;;18.80;36.20;;;;;;5068891;28;20693;-65
2021/12/28 07:59:04;;;;;;;1.20;1.10;;;18.80;35.40;;;;;;5068770;28;20214;-65
2021/12/28 08:01:32;;;;;;;1.90;0.97;;;18.80;35.40;;;;;;5050942;28;20721;-65
2021/12/28 08:03:57;;;;;;;1.27;1.17;;;18.80;35.40;;;;;;5068923;28;20459;-65
2021/12/28 08:06:23;;;;;;;1.10;1.00;;;18.80;35.40;;;;;;5069006;28;20429;-65
2021/12/28 08:08:49;;;;;;;1.00;0.90;;;18.80;35.40;;;;;;5069516;28;20247;-65
2021/12/28 08:11:14;;;;;;;1.20;1.10;;;18.80;35.40;;;;;;5068729;28;20301;-65
2021/12/28 08:13:40;;;;;;;1.20;1.10;;;18.70;35.30;;;;;;5068758;28;20226;-65
2021/12/28 08:16:06;;;;;;;1.20;1.10;;;18.70;35.30;;;;;;5069120;28;20237;-65
2021/12/28 08:18:31;;;;;;;1.13;1.03;;;18.70;35.30;;;;;;5068792;28;20210;-65
2021/12/28 08:20:57;;;;;;;1.70;0.80;;;18.80;35.40;;;;;;5068715;28;20292;-65
2021/12/28 08:23:23;;;;;;;0.93;0.90;;;18.70;35.30;;;;;;5068994;28;20220;-65
2021/12/28 08:25:49;;;;;;;1.27;1.17;;;18.80;35.50;;;;;;5069239;28;20236;-64
2021/12/28 08:28:15;;;;;;;1.13;1.03;;;18.80;35.50;;;;;;5065803;28;20242;-65
2021/12/28 08:30:41;;;;;;;1.57;1.30;;;18.70;35.40;;;;;;5050331;28;20489;-65
2021/12/28 08:33:08;;;;;;;1.20;1.00;;;18.80;35.40;;;;;;5070094;28;20206;-65
2021/12/28 08:35:39;;;;;;;1.30;1.20;;;18.80;35.50;;;;;;5072303;28;20627;-65
2021/12/28 08:38:05;;;;;;;1.00;0.90;;;18.70;35.40;;;;;;5072452;28;20489;-65
2021/12/28 08:40:31;;;;;;;1.00;1.00;;;18.70;35.30;;;;;;5071802;28;20465;-65
2021/12/28 08:42:57;;;;;;;1.27;1.13;;;18.70;35.30;;;;;;5072227;28;20847;-65
2021/12/28 08:45:22;;;;;;;1.50;1.40;;;18.80;35.40;;;;;;5072147;28;20466;-65
2021/12/28 08:47:50;;;;;;;0.80;0.80;;;18.80;35.40;;;;;;5072641;28;20289;-65
2021/12/28 08:50:17;;;;;;;1.10;1.00;;;18.70;35.40;;;;;;5071933;28;20214;-65
2021/12/28 08:52:43;;;;;;;1.00;0.90;;;18.70;35.40;;;;;;5072035;28;20971;-65
2021/12/28 08:55:09;;;;;;;1.20;1.10;;;18.70;35.40;;;;;;5071269;28;20413;-65
2021/12/28 08:57:36;;;;;;;1.20;1.10;;;18.70;35.30;;;;;;5071518;28;20473;-65
2021/12/28 09:00:05;;;;;;;1.20;1.00;;;18.80;35.40;;;;;;5072000;28;20452;-65
2021/12/28 09:02:30;;;;;;;1.00;0.90;;;18.80;35.50;;;;;;5068858;28;20458;-64
2021/12/28 09:04:56;;;;;;;1.10;1.00;;;18.70;35.30;;;;;;5071701;28;20462;-65
2021/12/28 09:07:23;;;;;;;0.70;0.70;;;18.70;35.30;;;;;;5071785;28;20687;-64
2021/12/28 09:09:49;;;;;;;1.10;1.00;;;18.70;35.30;;;;;;5072410;28;20217;-65
2021/12/28 09:12:15;;;;;;;1.00;1.00;;;18.70;35.30;;;;;;5071796;28;20896;-65
2021/12/28 09:14:41;;;;;;;1.20;1.00;;;18.80;35.40;;;;;;5071592;28;20458;-65
2021/12/28 09:17:06;;;;;;;1.10;1.00;;;18.70;35.30;;;;;;5071673;28;20309;-65
2021/12/28 09:19:33;;;;;;;1.20;1.10;;;18.70;35.30;;;;;;5071310;28;20217;-65
2021/12/28 09:21:59;;;;;;;1.10;1.00;;;18.80;35.50;;;;;;5070050;28;20217;-65
2021/12/28 09:24:25;;;;;;;1.10;1.00;;;18.70;35.40;;;;;;5070427;28;20436;-65
2021/12/28 09:26:51;;;;;;;1.10;1.00;;;18.70;35.40;;;;;;5071934;28;21010;-65
2021/12/28 09:29:16;;;;;;;0.97;0.90;;;18.70;35.50;;;;;;5071843;28;20355;-65
2021/12/28 09:31:42;;;;;;;0.97;0.90;;;18.70;35.50;;;;;;5071504;28;20213;-65
2021/12/28 09:34:08;;;;;;;0.87;0.87;;;18.70;35.50;;;;;;5071524;28;20828;-65
2021/12/28 09:36:34;;;;;;;1.10;1.00;;;18.70;35.50;;;;;;5071254;28;20217;-65
2021/12/28 09:38:59;;;;;;;1.97;1.10;;;18.70;35.40;;;;;;5053317;28;20296;-65
2021/12/28 09:41:25;;;;;;;1.20;1.10;;;18.80;35.50;;;;;;5071243;28;20216;-65
2021/12/28 09:43:50;;;;;;;1.93;1.00;;;18.70;36.20;;;;;;5071342;28;20296;-65
2021/12/28 09:46:16;;;;;;;1.10;1.00;;;18.70;35.50;;;;;;5070292;28;20253;-65
2021/12/28 09:48:42;;;;;;;1.20;1.10;;;18.70;35.40;;;;;;5070941;28;20658;-65
2021/12/28 09:51:08;;;;;;;1.07;1.00;;;18.70;35.40;;;;;;5071022;28;20294;-65
2021/12/28 09:53:35;;;;;;;1.07;0.93;;;18.70;35.50;;;;;;5070988;28;20606;-65
2021/12/28 09:56:02;;;;;;;1.00;0.80;;;18.70;35.50;;;;;;5070627;28;20939;-65
2021/12/28 09:58:27;;;;;;;1.00;0.90;;;18.70;35.50;;;;;;5070725;28;20417;-65
2021/12/28 10:00:53;;;;;;;0.90;0.90;;;18.70;36.20;;;;;;5070827;28;20461;-66
2021/12/28 10:03:19;;;;;;;1.30;1.20;;;18.70;36.20;;;;;;5071144;28;20695;-65
2021/12/28 10:05:45;;;;;;;1.20;1.10;;;18.70;35.50;;;;;;5070495;28;20229;-65
2021/12/28 10:08:12;;;;;;;1.00;0.90;;;18.70;35.50;;;;;;5070578;28;20646;-65
2021/12/28 10:10:42;;;;;;;0.93;0.93;;;18.70;35.50;;;;;;5067763;28;20265;-65
2021/12/28 10:13:16;;;;;;;1.10;1.00;;;18.70;35.50;;;;;;5070531;28;20459;-65
2021/12/28 10:15:43;;;;;;;1.07;0.97;;;18.70;35.50;;;;;;5068101;28;20446;-65
2021/12/28 10:18:10;;;;;;;1.87;1.37;;;18.70;35.50;;;;;;5070574;28;20436;-65
2021/12/28 10:20:43;;;;;;;1.20;0.90;;;18.70;35.50;;;;;;5070182;28;20493;-66
2021/12/28 10:23:18;;;;;;;1.10;1.00;;;18.70;35.50;;;;;;5070620;28;20472;-65
2021/12/28 10:25:49;;;;;;;1.17;0.90;;;18.70;35.50;;;;;;5070166;28;20477;-65
2021/12/28 10:28:21;;;;;;;1.20;1.10;;;18.70;35.50;;;;;;5052332;28;20976;-65
2021/12/28 10:30:56;;;;;;;1.07;0.93;;;18.70;35.50;;;;;;5069712;28;20449;-65
2021/12/28 10:33:25;;;;;;;1.10;1.00;;;18.70;36.30;;;;;;5069786;28;20438;-65
2021/12/28 10:35:53;;;;;;;1.00;0.90;;;18.70;35.50;;;;;;5070577;28;20459;-64
2021/12/28 10:38:28;;;;;;;0.93;0.90;;;18.70;35.60;;;;;;5070246;28;20419;-65
2021/12/28 10:41:09;;;;;;;0.80;0.80;;;18.70;35.50;;;;;;5069249;28;20421;-65
2021/12/28 10:43:37;;;;;;;0.90;0.80;;;18.70;35.60;;;;;;5069742;28;20421;-65
2021/12/28 10:46:05;;;;;;;1.27;1.17;;;18.70;35.60;;;;;;5069665;28;20458;-65
2021/12/28 10:48:35;;;;;;;1.10;1.00;;;18.70;35.60;;;;;;5069400;28;20414;-65
2021/12/28 10:51:09;;;;;;;0.83;0.83;;;18.70;35.50;;;;;;5068062;28;20874;-65
2021/12/28 10:53:56;;;;;;;1.00;0.90;;;18.70;35.60;;;;;;5069648;28;20474;-65
2021/12/28 10:56:23;;;;;;;1.10;0.90;;;18.70;35.50;;;;;;5069560;28;20865;-65
2021/12/28 10:58:51;;;;;;;1.10;0.97;;;18.70;35.60;;;;;;5070176;28;20443;-65
2021/12/28 11:01:25;;;;;;;1.00;0.90;;;18.70;35.60;;;;;;5069838;28;20906;-65
2021/12/28 11:03:58;;;;;;;1.00;0.90;;;18.70;35.60;;;;;;5069755;28;20441;-65
2021/12/28 11:06:25;;;;;;;0.80;0.80;;;18.70;36.30;;;;;;5066189;28;20429;-65
2021/12/28 11:08:55;;;;;;;1.90;1.13;;;18.70;35.60;;;;;;5070178;28;20477;-65
2021/12/28 11:11:24;;;;;;;0.90;0.83;;;18.70;35.60;;;;;;5069521;28;20742;-65
2021/12/28 11:13:53;;;;;;;1.00;0.90;;;18.70;35.50;;;;;;5069385;28;20469;-65
2021/12/28 11:16:26;;;;;;;1.00;0.90;;;18.70;35.70;;;;;;5068095;28;20435;-65
2021/12/28 11:18:53;;;;;;;0.80;0.80;;;18.70;35.60;;;;;;5067936;28;20529;-65
2021/12/28 11:21:27;;;;;;;1.13;1.00;;;18.70;35.50;;;;;;5069482;28;20470;-65
2021/12/28 11:24:00;;;;;;;0.97;0.93;;;18.70;35.60;;;;;;5068207;28;20416;-65
2021/12/28 11:26:31;;;;;;;1.17;1.00;;;18.70;35.60;;;;;;5068884;28;20442;-65
2021/12/28 11:28:59;;;;;;;1.13;0.80;;;18.70;35.60;;;;;;5068910;28;20438;-65
2021/12/28 11:31:52;;;;;;;0.80;0.80;;;18.70;35.60;;;;;;5067593;28;20442;-65
2021/12/28 11:34:29;;;;;;;0.83;0.80;;;18.70;35.50;;;;;;5034936;28;20447;-65
2021/12/28 11:36:58;;;;;;;2.03;0.93;;;18.70;35.60;;;;;;5068540;28;20428;-65
2021/12/28 11:39:27;;;;;;;1.00;0.90;;;18.70;35.60;;;;;;5068695;28;20466;-65
2021/12/28 11:41:53;;;;;;;1.00;0.90;;;18.70;35.60;;;;;;5067968;28;20525;-65
2021/12/28 11:44:20;;;;;;;0.77;0.70;;;18.70;35.60;;;;;;5069481;28;20636;-65
2021/12/28 11:46:47;;;;;;;0.83;0.73;;;18.70;35.60;;;;;;5068527;28;20910;-65
2021/12/28 11:49:15;;;;;;;0.87;0.80;;;18.70;35.60;;;;;;5068788;28;20454;-65
2021/12/28 11:51:44;;;;;;;0.87;0.80;;;18.70;35.60;;;;;;5067893;28;20413;-65
2021/12/28 11:54:12;;;;;;;0.73;0.70;;;18.70;35.50;;;;;;5066632;28;20425;-65
2021/12/28 11:56:43;;;;;;;0.83;0.70;;;18.70;35.60;;;;;;5068431;28;20532;-65
2021/12/28 11:59:20;;;;;;;0.87;0.87;;;18.70;35.70;;;;;;5068593;28;20437;-65
2021/12/28 12:02:07;;;;;;;1.00;0.80;;;18.70;35.60;;;;;;5068436;28;20425;-65
2021/12/28 12:04:32;;;;;;;0.80;0.70;;;18.70;35.60;;;;;;5065103;28;20466;-65
2021/12/28 12:07:18;;;;;;;1.30;0.80;;;18.70;35.60;;;;;;5068395;28;20455;-65
2021/12/28 12:09:49;;;;;;;0.80;0.70;;;18.70;35.60;;;;;;5072394;28;20219;-65
2021/12/28 12:12:31;;;;;;;0.80;0.80;;;18.70;35.60;;;;;;5069649;28;20519;-65
2021/12/28 12:14:57;;;;;;;0.80;0.70;;;18.70;35.60;;;;;;5072160;28;20506;-65
2021/12/28 12:17:37;;;;;;;0.70;0.70;;;18.70;35.70;;;;;;5072419;28;20525;-65
2021/12/28 12:20:08;;;;;;;0.70;0.70;;;18.70;35.60;;;;;;5071484;28;20450;-65
2021/12/28 12:22:39;;;;;;;0.80;0.80;;;18.70;35.70;;;;;;5070501;28;20537;-65
2021/12/28 12:25:06;;;;;;;0.90;0.80;;;18.70;35.60;;;;;;5070162;28;20428;-65
2021/12/28 12:27:59;;;;;;;0.83;0.83;;;18.70;35.60;;;;;;5072254;28;20473;-65
2021/12/28 12:30:25;;;;;;;0.80;0.80;;;18.70;35.60;;;;;;5070929;28;20439;-65
2021/12/28 12:32:57;;;;;;;0.80;0.80;;;18.60;35.50;;;;;;5072644;28;20450;-65
2021/12/28 12:35:39;;;;;;;1.40;0.80;;;18.70;35.60;;;;;;5070460;28;20296;-65
2021/12/28 12:38:14;;;;;;;0.93;0.80;;;18.60;35.60;;;;;;5071652;28;20442;-65
2021/12/28 12:40:59;;;;;;;0.80;0.80;;;18.70;35.70;;;;;;5069313;28;20470;-65
2021/12/28 12:43:39;;;;;;;0.90;0.70;;;18.70;35.60;;;;;;5068789;28;20841;-65
2021/12/28 12:46:09;;;;;;;0.77;0.67;;;18.70;35.60;;;;;;5070992;28;20441;-65
2021/12/28 12:48:39;;;;;;;0.80;0.80;;;18.70;35.60;;;;;;5069740;28;20496;-65
2021/12/28 12:51:22;;;;;;;0.90;0.80;;;18.70;35.60;;;;;;5070277;28;20425;-65